5 day graph

You are here

Error message

  • Notice: Trying to access array offset on value of type int in DrupalRequestSanitizer::stripDangerousValues() (line 102 of /home/twolittl/public_html/cms/includes/request-sanitizer.inc).
  • Notice: Trying to access array offset on value of type int in DrupalRequestSanitizer::stripDangerousValues() (line 102 of /home/twolittl/public_html/cms/includes/request-sanitizer.inc).
  • Notice: Trying to access array offset on value of type int in DrupalRequestSanitizer::stripDangerousValues() (line 102 of /home/twolittl/public_html/cms/includes/request-sanitizer.inc).
  • Notice: Trying to access array offset on value of type int in DrupalRequestSanitizer::stripDangerousValues() (line 102 of /home/twolittl/public_html/cms/includes/request-sanitizer.inc).
  • Notice: Trying to access array offset on value of type int in DrupalRequestSanitizer::stripDangerousValues() (line 102 of /home/twolittl/public_html/cms/includes/request-sanitizer.inc).
  • Notice: Trying to access array offset on value of type int in DrupalRequestSanitizer::stripDangerousValues() (line 102 of /home/twolittl/public_html/cms/includes/request-sanitizer.inc).
  • Deprecated function: Function get_magic_quotes_gpc() is deprecated in phpMyEdit->get_cgi_var() (line 1773 of /home/twolittl/public_html/phpMyEdit.class.php).
  • Deprecated function: implode(): Passing glue string after array is deprecated. Swap the parameters in drupal_get_feeds() (line 394 of /home/twolittl/public_html/cms/includes/common.inc).

Hive Data

Page: 1 of 16645  Records: 998690

Row Date Time Hive Temp Hive Humidity Outside Temp Outside Humidity Bottom Board Temp Outside Wall Temp Electronics Temp Light Levels inHG Fan Heat Cover Notes
Clear Sorted By: Notes ascending, Outside Wall Temp ascending, Row descending
View 481 May 4 2014 8:46:44pm 82.4 60 52.88 76 78.35 58.55 80.6 2 29.13 0 0 0 1/2 gallon sugar water mix
View 507053 Jun 3 2015 4:23:49pm 92.48 51 63.86 66 63.05 70.7 86 189 29.31 0 0 1 Added honey super. Now 5 medium boxes. Added honey super to Kimmi's and is also 5 boxes. Added 3rd medium to Pink hive. Replaced hive bodies(2) on swarm hive. Removed one box from Kimmi Nuc split (found queen) and this hive needs some stores.
View 447882 Apr 18 2015 3:48:58pm 81.32 42 70.16 38 83.75 72.95 91.4 150 29.53 0 0 1 Added new medium filled with foundationless. Moved the two black frames up into this box and put 2 undrawn frames in the second to top box. Now has mediums boxes. Kimmi's also got pyramided up to 3 boxes on foundation.
View 29747 May 25 2014 1:37:46pm 82.94 47 67.64 52 75.65 72.5 87.8 642 29.29 0 0 1 Andy, my mentor, just dropped in and wanted to look. Opened one hive, he didn't use smoke and I got stung in bottom left eyelid and right arm. Queen is laying.
View 303747 Dec 27 2014 11:08:33am 62.06 66 45.14 89 44.15 45.05 55.4 261 29.38 0 0 0 Changed logging to every 10 minutes.
View 303750 Dec 28 2014 11:35:16am 60.26 70 41.72 84 41.9 42.35 53.6 264 29.47 0 0 0 Changed logging to every 6 minutes. 10 failed. Possible timeout setting on the server. Need to investigate drop of online data.
View 31294 May 26 2014 3:49:51pm 86.72 40 71.96 47 77 79.7 86 971 29.41 0 0 1 Checked Sammi's hive. Straightened up comb. Saw eggs. Put quilt on both boxes.
View 85564 Jul 9 2014 12:29:55pm 89.6 58 92.48 41 87.35 86.45 98.6 949 29.28 0 0 1 Checked to see how the loaner frame did. Queen cells again! No queen to be found.
View 63687 Jun 18 2014 5:54:43pm 83.66 49 67.1 52 74.3 73.85 86 910 29.34 0 0 1 Checked. Not much brood or bees. Bunch of dead bees and larva on bottom board. Saw queen.
View 420995 Mar 30 2015 3:29:08pm 84.38 62 68.36 51 81.5 76.55 91.4 128 29.17 0 0 1 Checkerboard from 2 to 3 boxes. Foundation only on the 10 new frames. Found hatched drones and drone cells.
View 3104 May 6 2014 5:19:30pm 85.28 63 60.44 63 83.75 62.6 82.4 783 29.28 0 0 1 Drawn comb check. Still have frames with foundation. Queen cells!
View 25693 May 22 2014 4:53:57pm 89.6 43 81.86 39 91.85 85.1 102.2 896 29.32 1 0 1 Found queen. No eggs.
View 78420 Jul 2 2014 2:25:26pm 86.9 51 87.98 36 80.6 92.3 96.8 956 29.2 0 0 1 Gave hive a frame of brood from Kimmi's hive. Including the bees on the frame. Hope this helps them start to grow.
View 91598 Jul 13 2014 7:26:23pm 93.38 49 80.6 58 89.15 81.05 98.6 533 29.33 0 0 1 Hive has queen cells. Took one frame with a QC and a frame of stores and made a split. Now have a medium Nuc with one QC. Not sure when they were capped.
View 39892 Jun 1 2014 5:56:26pm 91.76 41 76.82 42 85.1 81.05 93.2 916 29.28 1 0 1 Inpected both hives. Found both queens. Neighbor kids helped. No one stung. Still have 4-5 combs to draw before adding a new box. Pics of queen in Sammi's hive.
View 48297 Jun 7 2014 7:48:42pm 93.02 32 73.4 41 82.4 74.75 96.8 745 29.43 1 0 1 Inspected all 3 hives. Found queen in Sammi's and Kimmi's. The swarm hive was all clustered on the side wall and was building comb from the edge of the frame and not the center of the frame. Moved the partaly draw frame to the middle and surrounded by other frames being worked. Did not see queen. Bees are very dark. Fed swarm hive about 3/4 gallon Sunday night (next day)
View 181289 Sep 27 2014 1:11:46pm 87.62 60 82.94 54 77.9 81.5 86 974 29.37 0 0 1 Inspected all hives. Nuc got robbed, has no stores. Setting up feeding (damn!!) Saw queen in Sammi and Kimmi. Swarm has not moved into lower box but top box is very full.
View 1692 May 5 2014 5:21:38pm 82.76 61 56.66 79 81.5 60.8 78.8 839 29.28 0 0 0 Loaded new code to the Arduino to better log data to the server
View 71289 Jun 27 2014 12:37:55pm 79.7 54 69.8 65 69.35 72.5 82.4 915 29.05 0 0 0 Logging server was not running. Started logging server
View 307830 Jan 1 2015 5:20:43pm 67.28 54 30.74 62 47.75 45.05 57.2 256 29.51 0 0 0 Moved hive to new location. Now with other 3 hives. Outdoor temp should be more accurate now. The hive is no longer 18 inchs from the South side of a white wall.
View 382806 Mar 1 2015 3:53:36pm 77 50 55.94 39 56.75 -196.6 77 219 29.3 0 0 0 NA
View 382805 Mar 1 2015 3:52:35pm 77.18 51 55.94 39 56.75 -196.6 77 220 29.3 0 0 0 NA
View 382804 Mar 1 2015 3:51:35pm 77.18 52 55.94 39 56.75 -196.6 77 220 29.3 0 0 0 NA
View 382803 Mar 1 2015 3:50:34pm 77.18 54 55.76 39 56.75 -196.6 77 220 29.3 0 0 0 NA
View 382802 Mar 1 2015 3:49:33pm 77 52 55.76 38 56.75 -196.6 77 220 29.3 0 0 0 NA
View 382801 Mar 1 2015 3:48:31pm 77 53 55.76 38 56.75 -196.6 77 220 29.3 0 0 0 NA
View 382800 Mar 1 2015 3:47:30pm 77 53 55.76 38 56.75 -196.6 77 220 29.3 0 0 0 NA
View 382799 Mar 1 2015 3:46:29pm 77 53 55.58 38 56.75 -196.6 77 220 29.3 0 0 0 NA
View 382798 Mar 1 2015 3:45:28pm 77 52 55.4 38 56.75 -196.6 77 221 29.3 0 0 0 NA
View 382797 Mar 1 2015 3:44:26pm 77 52 55.4 38 56.75 -196.6 75.2 220 29.3 0 0 0 NA
View 382796 Mar 1 2015 3:43:27pm 77 51 55.4 38 56.75 -196.6 77 220 29.31 0 0 0 NA
View 382795 Mar 1 2015 3:42:25pm 77 52 55.4 38 56.75 -196.6 75.2 221 29.31 0 0 0 NA
View 382794 Mar 1 2015 3:41:24pm 77.18 52 55.4 39 56.75 -196.6 75.2 220 29.31 0 0 0 NA
View 382793 Mar 1 2015 3:40:23pm 77 53 55.4 39 56.75 -196.6 75.2 220 29.3 0 0 0 NA
View 382792 Mar 1 2015 3:39:21pm 77 53 55.4 38 56.75 -196.6 77 220 29.31 0 0 0 NA
View 382791 Mar 1 2015 3:38:20pm 77 53 55.58 39 56.75 -196.6 77 220 29.31 0 0 0 NA
View 382790 Mar 1 2015 3:37:19pm 77 55 55.58 38 56.75 -196.6 77 221 29.3 0 0 0 NA
View 382789 Mar 1 2015 3:36:18pm 77 53 55.4 38 56.75 -196.6 77 221 29.31 0 0 0 NA
View 382788 Mar 1 2015 3:35:16pm 77 52 55.58 38 56.75 -196.6 77 220 29.31 0 0 0 NA
View 382787 Mar 1 2015 3:34:16pm 77 55 55.58 38 56.75 -196.6 77 220 29.31 0 0 0 NA
View 382786 Mar 1 2015 3:33:15pm 76.82 53 55.4 37 56.75 -196.6 75.2 221 29.31 0 0 0 NA
View 382785 Mar 1 2015 3:32:14pm 77 51 55.58 38 56.75 -196.6 75.2 221 29.31 0 0 0 NA
View 382784 Mar 1 2015 3:31:13pm 77 53 55.58 38 56.75 -196.6 75.2 220 29.31 0 0 0 NA
View 382783 Mar 1 2015 3:30:11pm 77 52 55.58 37 56.75 -196.6 75.2 220 29.31 0 0 0 NA
View 382782 Mar 1 2015 3:29:10pm 77 53 55.76 37 56.75 -196.6 75.2 221 29.31 0 0 0 NA
View 382781 Mar 1 2015 3:28:09pm 76.82 54 55.76 37 56.75 -196.6 75.2 220 29.31 0 0 0 NA
View 382780 Mar 1 2015 3:27:07pm 76.82 57 55.76 37 56.75 -196.6 75.2 221 29.31 0 0 0 NA
View 382779 Mar 1 2015 3:26:08pm 76.82 56 55.94 37 56.75 -196.6 75.2 220 29.31 0 0 0 NA
View 382778 Mar 1 2015 3:25:06pm 76.64 52 55.94 38 56.75 -196.6 75.2 220 29.31 0 0 0 NA
View 382777 Mar 1 2015 3:24:05pm 76.64 53 56.12 38 56.75 -196.6 75.2 220 29.31 0 0 0 NA
View 382776 Mar 1 2015 3:23:04pm 76.64 54 56.12 38 56.75 -196.6 75.2 221 29.32 0 0 0 NA
View 382775 Mar 1 2015 3:22:03pm 76.64 54 56.12 39 56.3 -196.6 75.2 220 29.31 0 0 0 NA
View 382774 Mar 1 2015 3:21:01pm 76.64 53 56.12 38 56.3 -196.6 75.2 221 29.32 0 0 0 NA
View 382773 Mar 1 2015 3:20:00pm 76.46 51 56.12 37 56.3 -196.6 75.2 220 29.31 0 0 0 NA
View 382772 Mar 1 2015 3:19:00pm 76.64 50 56.12 38 56.3 -196.6 75.2 220 29.31 0 0 0 NA
View 382771 Mar 1 2015 3:17:59pm 76.64 52 56.12 38 56.3 -196.6 75.2 221 29.32 0 0 0 NA
View 382770 Mar 1 2015 3:16:58pm 76.64 53 55.94 37 56.3 -196.6 75.2 220 29.31 0 0 0 NA
View 382769 Mar 1 2015 3:15:56pm 76.64 54 56.12 38 56.3 -196.6 75.2 221 29.32 0 0 0 NA
View 382768 Mar 1 2015 3:14:55pm 76.46 56 56.12 38 56.3 -196.6 75.2 221 29.32 0 0 0 NA
View 382767 Mar 1 2015 3:13:54pm 76.46 54 56.12 38 56.3 -196.6 75.2 221 29.31 0 0 0 NA